createdAt,value
2018-04-26T00:00:53.221Z,0.00
2018-04-26T00:01:53.199Z,0.00
2018-04-26T00:02:53.176Z,0.00
2018-04-26T00:03:53.155Z,0.00
2018-04-26T00:04:53.136Z,0.00
2018-04-26T00:05:53.115Z,0.00
2018-04-26T00:06:53.093Z,0.00
2018-04-26T00:07:53.073Z,0.00
2018-04-26T00:08:53.052Z,0.00
2018-04-26T00:09:53.032Z,0.00
2018-04-26T00:10:53.013Z,0.00
2018-04-26T00:11:52.992Z,0.00
2018-04-26T00:12:52.969Z,0.00
2018-04-26T00:13:52.949Z,0.00
2018-04-26T00:14:52.926Z,0.00
2018-04-26T00:15:52.906Z,0.00
2018-04-26T00:16:52.886Z,0.00
2018-04-26T00:17:52.864Z,0.00
2018-04-26T00:18:52.845Z,0.00
2018-04-26T00:19:52.824Z,0.00
2018-04-26T00:20:52.803Z,0.00
2018-04-26T00:21:52.784Z,0.00
2018-04-26T00:22:52.762Z,0.00
2018-04-26T00:23:52.741Z,0.00
2018-04-26T00:24:52.721Z,0.00
2018-04-26T00:25:52.699Z,0.00
2018-04-26T00:26:52.680Z,0.00
2018-04-26T00:27:52.659Z,0.00
2018-04-26T00:28:52.638Z,0.00
2018-04-26T00:29:52.625Z,0.00
2018-04-26T00:30:52.596Z,0.00
2018-04-26T00:31:52.577Z,0.00
2018-04-26T00:32:52.557Z,0.00
2018-04-26T00:33:52.536Z,0.00
2018-04-26T00:34:52.514Z,0.00
2018-04-26T00:35:52.495Z,0.00
2018-04-26T00:36:52.472Z,0.00
2018-04-26T00:37:52.452Z,0.00
2018-04-26T00:38:52.431Z,0.00
2018-04-26T00:39:52.411Z,0.00
2018-04-26T00:40:52.391Z,0.00
2018-04-26T00:41:52.372Z,0.00
2018-04-26T00:42:52.350Z,0.00
2018-04-26T00:43:52.329Z,0.00
2018-04-26T00:44:52.310Z,0.00
2018-04-26T00:45:52.290Z,0.00
2018-04-26T00:46:52.267Z,0.00
2018-04-26T00:47:52.248Z,0.00
2018-04-26T00:48:52.227Z,0.00
2018-04-26T00:49:52.207Z,0.00
2018-04-26T00:50:52.186Z,0.00
2018-04-26T00:51:52.166Z,0.00
2018-04-26T00:52:52.145Z,0.00
2018-04-26T00:53:52.125Z,0.00
2018-04-26T00:54:52.106Z,0.00
2018-04-26T00:55:52.084Z,0.00
2018-04-26T00:56:52.066Z,0.00
2018-04-26T00:57:52.049Z,0.00
2018-04-26T00:58:52.023Z,0.00
2018-04-26T00:59:52.003Z,0.00
2018-04-26T01:00:51.983Z,0.00
2018-04-26T01:01:51.966Z,0.00
2018-04-26T01:02:51.946Z,0.00
2018-04-26T01:03:51.922Z,0.00
2018-04-26T01:04:51.903Z,0.00
2018-04-26T01:05:51.880Z,0.00
2018-04-26T01:06:51.862Z,0.00
2018-04-26T01:07:51.839Z,0.00
2018-04-26T01:08:51.819Z,0.00
2018-04-26T01:09:51.800Z,0.00
2018-04-26T01:10:51.778Z,0.00
2018-04-26T01:11:51.758Z,0.00
2018-04-26T01:12:51.738Z,0.00
2018-04-26T01:13:51.721Z,0.00
2018-04-26T01:14:51.697Z,0.00
2018-04-26T01:15:51.676Z,0.00
2018-04-26T01:16:51.658Z,0.00
2018-04-26T01:17:51.637Z,0.00
2018-04-26T01:18:51.617Z,0.00
2018-04-26T01:19:51.596Z,0.00
2018-04-26T01:20:51.577Z,0.00
2018-04-26T01:21:51.563Z,0.00
2018-04-26T01:22:51.536Z,0.00
2018-04-26T01:23:51.516Z,0.00
2018-04-26T01:24:51.496Z,0.00
2018-04-26T01:25:51.476Z,0.00
2018-04-26T01:26:51.456Z,0.00
2018-04-26T01:27:51.436Z,0.00
2018-04-26T01:28:51.416Z,0.00
2018-04-26T01:29:51.396Z,0.00
2018-04-26T01:30:51.373Z,0.00
2018-04-26T01:31:51.357Z,0.00
2018-04-26T01:32:51.334Z,0.00
2018-04-26T01:33:51.320Z,0.00
2018-04-26T01:34:51.296Z,0.00
2018-04-26T01:35:51.273Z,0.00
2018-04-26T01:36:51.254Z,0.00
2018-04-26T01:37:51.234Z,0.00
2018-04-26T01:38:51.213Z,0.00
2018-04-26T01:39:51.194Z,0.00
2018-04-26T01:40:51.173Z,0.00
2018-04-26T01:41:51.155Z,0.00
2018-04-26T01:42:51.134Z,0.00
2018-04-26T01:43:51.112Z,0.00
2018-04-26T01:44:51.094Z,0.00
2018-04-26T01:45:51.073Z,0.00
2018-04-26T01:46:51.054Z,0.00
2018-04-26T01:47:51.033Z,0.00
2018-04-26T01:48:51.012Z,0.00
2018-04-26T01:49:50.994Z,0.00
2018-04-26T01:50:50.973Z,0.00
2018-04-26T01:51:50.951Z,0.00
2018-04-26T01:52:50.932Z,0.00
2018-04-26T01:53:50.945Z,0.00
2018-04-26T01:54:50.892Z,0.00
2018-04-26T01:55:50.872Z,0.00
2018-04-26T01:56:50.851Z,0.00
2018-04-26T01:57:50.833Z,0.00
2018-04-26T01:58:50.812Z,0.00
2018-04-26T01:59:50.794Z,0.00
2018-04-26T02:00:50.771Z,0.00
2018-04-26T02:01:50.753Z,0.00
2018-04-26T02:02:50.731Z,0.00
2018-04-26T02:03:50.712Z,0.00
2018-04-26T02:04:50.693Z,0.00
2018-04-26T02:05:50.676Z,0.00
2018-04-26T02:06:50.653Z,0.00
2018-04-26T02:07:50.631Z,0.00
2018-04-26T02:08:50.613Z,0.00
2018-04-26T02:09:50.591Z,0.00
2018-04-26T02:10:50.572Z,0.00
2018-04-26T02:11:50.551Z,0.00
2018-04-26T02:12:50.533Z,0.00
2018-04-26T02:13:50.511Z,0.00
2018-04-26T02:14:50.491Z,0.00
2018-04-26T02:15:50.472Z,0.00
2018-04-26T02:16:50.451Z,0.00
2018-04-26T02:17:50.431Z,0.00
2018-04-26T02:18:50.411Z,0.00
2018-04-26T02:19:50.390Z,0.00
2018-04-26T02:20:50.372Z,0.00
2018-04-26T02:21:50.351Z,0.00
2018-04-26T02:22:50.329Z,0.00
2018-04-26T02:23:50.312Z,0.00
2018-04-26T02:24:50.290Z,0.00
2018-04-26T02:25:50.271Z,0.00
2018-04-26T02:26:50.251Z,0.00
2018-04-26T02:27:50.231Z,0.00
2018-04-26T02:28:50.213Z,0.00
2018-04-26T02:29:50.190Z,0.00
2018-04-26T02:30:50.171Z,0.00
2018-04-26T02:31:50.151Z,0.00
2018-04-26T02:32:50.131Z,0.00
2018-04-26T02:33:50.111Z,0.00
2018-04-26T02:34:50.090Z,0.00
2018-04-26T02:35:50.070Z,0.00
2018-04-26T02:36:50.051Z,0.00
2018-04-26T02:37:50.030Z,0.00
2018-04-26T02:38:50.009Z,0.00
2018-04-26T02:39:49.989Z,0.00
2018-04-26T02:40:49.971Z,0.00
2018-04-26T02:41:49.949Z,0.00
2018-04-26T02:42:49.929Z,0.00
2018-04-26T02:43:49.914Z,0.00
2018-04-26T02:44:49.888Z,0.00
2018-04-26T02:45:49.915Z,0.00
2018-04-26T02:46:49.845Z,0.00
2018-04-26T02:47:49.825Z,0.00
2018-04-26T02:48:49.805Z,0.00
2018-04-26T02:49:49.785Z,0.00
2018-04-26T02:50:49.764Z,0.00
2018-04-26T02:51:49.747Z,0.00
2018-04-26T02:52:49.723Z,0.00
2018-04-26T02:53:49.704Z,0.00
2018-04-26T02:54:49.679Z,0.00
2018-04-26T02:55:49.660Z,0.00
2018-04-26T02:56:49.637Z,0.00
2018-04-26T02:57:49.617Z,0.00
2018-04-26T02:58:49.594Z,0.00
2018-04-26T02:59:49.574Z,0.00
2018-04-26T03:00:49.553Z,0.00
2018-04-26T03:01:49.532Z,0.00
2018-04-26T03:02:49.511Z,0.00
2018-04-26T03:03:49.489Z,0.00
2018-04-26T03:04:49.469Z,0.00
2018-04-26T03:05:49.447Z,0.00
2018-04-26T03:06:49.425Z,0.00
2018-04-26T03:07:49.407Z,0.00
2018-04-26T03:08:49.388Z,0.00
2018-04-26T03:09:49.387Z,0.00
2018-04-26T03:10:49.340Z,0.00
2018-04-26T03:11:49.323Z,0.00
2018-04-26T03:12:49.296Z,0.00
2018-04-26T03:13:49.275Z,0.00
2018-04-26T03:14:49.253Z,0.00
2018-04-26T03:15:49.233Z,0.00
2018-04-26T03:16:49.211Z,0.00
2018-04-26T03:17:49.189Z,0.00
2018-04-26T03:18:49.166Z,0.00
2018-04-26T03:19:49.145Z,0.00
2018-04-26T03:20:49.124Z,0.00
2018-04-26T03:21:49.155Z,0.00
2018-04-26T03:22:49.093Z,0.00
2018-04-26T03:23:49.059Z,0.00
2018-04-26T03:24:49.041Z,0.00
2018-04-26T03:25:49.017Z,0.00
2018-04-26T03:26:48.995Z,0.00
2018-04-26T03:27:48.982Z,0.00
2018-04-26T03:28:49.008Z,0.00
2018-04-26T03:29:48.931Z,0.00
2018-04-26T03:30:48.909Z,0.00
2018-04-26T03:31:48.888Z,0.00
2018-04-26T03:32:48.865Z,0.00
2018-04-26T03:33:48.845Z,0.00
2018-04-26T03:34:48.822Z,0.00
2018-04-26T03:35:48.800Z,0.00
2018-04-26T03:36:48.779Z,0.00
2018-04-26T03:37:48.757Z,0.00
2018-04-26T03:38:48.736Z,0.00
2018-04-26T03:39:48.716Z,0.00
2018-04-26T03:40:48.695Z,0.00
2018-04-26T03:41:48.670Z,0.00
2018-04-26T03:42:48.648Z,0.00
2018-04-26T03:43:48.627Z,0.00
2018-04-26T03:44:48.607Z,0.00
2018-04-26T03:45:48.584Z,0.00
2018-04-26T03:46:48.562Z,0.00
2018-04-26T03:47:48.541Z,0.00
2018-04-26T03:48:48.518Z,0.00
2018-04-26T03:49:48.498Z,0.00
2018-04-26T03:50:48.474Z,0.00
2018-04-26T03:51:48.453Z,0.00
2018-04-26T03:52:48.432Z,0.00
2018-04-26T03:53:48.410Z,0.00
2018-04-26T03:54:48.388Z,0.00
2018-04-26T03:55:48.369Z,0.00
2018-04-26T03:56:48.350Z,0.00
2018-04-26T03:57:48.324Z,0.00
2018-04-26T03:58:48.302Z,0.00
2018-04-26T03:59:48.281Z,0.00
2018-04-26T04:00:48.258Z,0.00
2018-04-26T04:01:48.237Z,0.00
2018-04-26T04:02:48.215Z,0.00
2018-04-26T04:03:48.193Z,0.00
2018-04-26T04:04:48.172Z,0.00
2018-04-26T04:05:48.154Z,0.00
2018-04-26T04:06:48.128Z,0.00
2018-04-26T04:07:48.107Z,0.00
2018-04-26T04:08:48.084Z,0.00
2018-04-26T04:09:48.063Z,0.00
2018-04-26T04:10:48.040Z,0.00
2018-04-26T04:11:48.021Z,0.00
2018-04-26T04:12:47.997Z,0.00
2018-04-26T04:13:48.072Z,0.00
2018-04-26T04:14:47.954Z,0.00
2018-04-26T04:15:47.935Z,0.00
2018-04-26T04:16:47.911Z,0.00
2018-04-26T04:17:47.891Z,0.00
2018-04-26T04:18:47.866Z,0.00
2018-04-26T04:19:47.844Z,0.00
2018-04-26T04:20:47.822Z,0.00
2018-04-26T04:21:47.800Z,0.00
2018-04-26T04:22:47.781Z,0.00
2018-04-26T04:23:47.757Z,0.00
2018-04-26T04:24:47.734Z,0.00
2018-04-26T04:25:47.712Z,0.00
2018-04-26T04:26:47.689Z,0.00
2018-04-26T04:27:47.667Z,0.00
2018-04-26T04:28:47.647Z,0.00
2018-04-26T04:29:47.625Z,0.00
2018-04-26T04:30:47.609Z,0.00
2018-04-26T04:31:47.580Z,0.00
2018-04-26T04:32:47.559Z,0.00
2018-04-26T04:33:47.546Z,0.00
2018-04-26T04:34:47.514Z,5.63
2018-04-26T04:35:47.493Z,5.63
2018-04-26T04:36:49.723Z,5.63
2018-04-26T04:37:47.450Z,5.63
2018-04-26T04:38:47.428Z,5.63
2018-04-26T04:39:47.404Z,5.63
2018-04-26T04:40:47.385Z,5.63
2018-04-26T04:41:47.363Z,5.63
2018-04-26T04:42:48.089Z,5.63
2018-04-26T04:43:47.321Z,11.25
2018-04-26T04:44:47.295Z,11.25
2018-04-26T04:45:47.276Z,11.25
2018-04-26T04:46:47.250Z,11.25
2018-04-26T04:47:47.229Z,16.88
2018-04-26T04:48:47.206Z,16.88
2018-04-26T04:49:47.185Z,22.50
2018-04-26T04:50:47.163Z,22.50
2018-04-26T04:51:47.139Z,28.13
2018-04-26T04:52:47.117Z,28.13
2018-04-26T04:53:47.095Z,28.13
2018-04-26T04:54:47.072Z,28.13
2018-04-26T04:55:47.051Z,28.13
2018-04-26T04:56:47.030Z,28.13
2018-04-26T04:57:47.007Z,28.13
2018-04-26T04:58:46.991Z,33.75
2018-04-26T04:59:46.965Z,33.75
2018-04-26T05:00:46.942Z,33.75
2018-04-26T05:01:46.920Z,28.13
2018-04-26T05:02:46.897Z,28.13
2018-04-26T05:03:46.873Z,22.50
2018-04-26T05:04:46.852Z,22.50
2018-04-26T05:05:46.830Z,22.50
2018-04-26T05:06:46.808Z,22.50
2018-04-26T05:07:46.785Z,22.50
2018-04-26T05:08:46.767Z,22.50
2018-04-26T05:09:46.743Z,22.50
2018-04-26T05:10:46.720Z,22.50
2018-04-26T05:11:46.698Z,22.50
2018-04-26T05:12:46.677Z,22.50
2018-04-26T05:13:46.741Z,22.50
2018-04-26T05:14:46.631Z,22.50
2018-04-26T05:15:46.610Z,22.50
2018-04-26T05:16:46.592Z,22.50
2018-04-26T05:17:46.566Z,22.50
2018-04-26T05:18:46.543Z,22.50
2018-04-26T05:19:46.545Z,22.50
2018-04-26T05:20:46.499Z,22.50
2018-04-26T05:21:46.477Z,22.50
2018-04-26T05:22:46.454Z,28.13
2018-04-26T05:23:46.432Z,28.13
2018-04-26T05:24:46.410Z,28.13
2018-04-26T05:25:46.400Z,28.13
2018-04-26T05:26:46.369Z,28.13
2018-04-26T05:27:46.344Z,33.75
2018-04-26T05:28:46.321Z,39.38
2018-04-26T05:29:46.299Z,45.00
2018-04-26T05:30:46.280Z,39.38
2018-04-26T05:31:46.254Z,33.75
2018-04-26T05:32:46.233Z,28.13
2018-04-26T05:33:46.275Z,28.13
2018-04-26T05:34:46.188Z,33.75
2018-04-26T05:35:46.166Z,33.75
2018-04-26T05:36:46.144Z,39.38
2018-04-26T05:37:46.125Z,39.38
2018-04-26T05:38:46.099Z,45.00
2018-04-26T05:39:46.076Z,50.63
2018-04-26T05:40:46.055Z,56.25
2018-04-26T05:41:46.032Z,56.25
2018-04-26T05:42:46.010Z,56.25
2018-04-26T05:43:45.989Z,50.63
2018-04-26T05:44:45.967Z,50.63
2018-04-26T05:45:45.944Z,45.00
2018-04-26T05:46:45.921Z,45.00
2018-04-26T05:47:45.901Z,50.63
2018-04-26T05:48:45.878Z,56.25
2018-04-26T05:49:45.856Z,56.25
2018-04-26T05:50:45.833Z,56.25
2018-04-26T05:51:45.811Z,61.88
2018-04-26T05:52:45.790Z,67.50
2018-04-26T05:53:45.768Z,73.13
2018-04-26T05:54:45.745Z,73.13
2018-04-26T05:55:45.746Z,73.13
2018-04-26T05:56:45.702Z,67.50
2018-04-26T05:57:45.684Z,67.50
2018-04-26T05:58:45.656Z,61.88
2018-04-26T05:59:45.646Z,61.88
2018-04-26T06:00:45.614Z,61.88
2018-04-26T06:01:45.593Z,61.88
2018-04-26T06:02:45.569Z,61.88
2018-04-26T06:03:45.554Z,73.13
2018-04-26T06:04:45.528Z,67.50
2018-04-26T06:05:45.503Z,73.13
2018-04-26T06:06:45.515Z,67.50
2018-04-26T06:07:45.460Z,67.50
2018-04-26T06:08:45.439Z,67.50
2018-04-26T06:09:45.417Z,67.50
2018-04-26T06:10:45.395Z,67.50
2018-04-26T06:11:46.122Z,78.75
2018-04-26T06:12:45.350Z,84.38
2018-04-26T06:13:45.330Z,95.63
2018-04-26T06:14:45.307Z,101.25
2018-04-26T06:15:45.284Z,95.63
2018-04-26T06:16:45.264Z,90.00
2018-04-26T06:17:45.242Z,73.13
2018-04-26T06:18:45.220Z,67.50
2018-04-26T06:19:45.197Z,67.50
2018-04-26T06:20:45.178Z,73.13
2018-04-26T06:21:45.155Z,78.75
2018-04-26T06:22:45.139Z,90.00
2018-04-26T06:23:45.111Z,95.63
2018-04-26T06:24:45.090Z,106.88
2018-04-26T06:25:45.072Z,123.75
2018-04-26T06:26:45.048Z,123.75
2018-04-26T06:27:45.026Z,129.38
2018-04-26T06:28:45.008Z,118.13
2018-04-26T06:29:44.983Z,118.13
2018-04-26T06:30:44.962Z,118.13
2018-04-26T06:31:44.940Z,135.00
2018-04-26T06:32:46.419Z,146.25
2018-04-26T06:33:44.897Z,157.50
2018-04-26T06:34:44.875Z,140.63
2018-04-26T06:35:44.854Z,129.38
2018-04-26T06:36:44.881Z,118.13
2018-04-26T06:37:44.813Z,112.50
2018-04-26T06:38:44.791Z,118.13
2018-04-26T06:39:44.768Z,118.13
2018-04-26T06:40:44.748Z,112.50
2018-04-26T06:41:44.726Z,118.13
2018-04-26T06:42:44.705Z,123.75
2018-04-26T06:43:44.682Z,129.38
2018-04-26T06:44:44.662Z,135.00
2018-04-26T06:45:44.643Z,140.63
2018-04-26T06:46:44.618Z,140.63
2018-04-26T06:47:44.629Z,140.63
2018-04-26T06:48:44.577Z,135.00
2018-04-26T06:49:44.556Z,135.00
2018-04-26T06:50:44.536Z,135.00
2018-04-26T06:51:44.517Z,135.00
2018-04-26T06:52:44.493Z,123.75
2018-04-26T06:53:44.476Z,129.38
2018-04-26T06:54:44.451Z,123.75
2018-04-26T06:55:44.430Z,123.75
2018-04-26T06:56:44.408Z,123.75
2018-04-26T06:57:44.388Z,129.38
2018-04-26T06:58:44.365Z,129.38
2018-04-26T06:59:44.344Z,123.75
2018-04-26T07:00:44.324Z,123.75
2018-04-26T07:01:44.303Z,129.38
2018-04-26T07:02:44.280Z,135.00
2018-04-26T07:03:44.259Z,146.25
2018-04-26T07:04:44.238Z,146.25
2018-04-26T07:05:44.222Z,151.88
2018-04-26T07:06:44.196Z,157.50
2018-04-26T07:07:44.176Z,157.50
2018-04-26T07:08:44.163Z,151.88
2018-04-26T07:09:44.132Z,157.50
2018-04-26T07:10:44.113Z,151.88
2018-04-26T07:11:44.090Z,163.13
2018-04-26T07:12:44.069Z,168.75
2018-04-26T07:13:44.048Z,180.00
2018-04-26T07:14:44.025Z,168.75
2018-04-26T07:15:44.003Z,163.13
2018-04-26T07:16:43.982Z,157.50
2018-04-26T07:17:43.966Z,168.75
2018-04-26T07:18:43.939Z,191.25
2018-04-26T07:19:43.918Z,196.88
2018-04-26T07:20:43.901Z,191.25
2018-04-26T07:21:43.880Z,180.00
2018-04-26T07:22:43.855Z,174.38
2018-04-26T07:23:43.834Z,180.00
2018-04-26T07:24:43.812Z,196.88
2018-04-26T07:25:43.792Z,208.13
2018-04-26T07:26:43.769Z,219.38
2018-04-26T07:27:43.748Z,213.75
2018-04-26T07:28:43.728Z,208.13
2018-04-26T07:29:43.707Z,208.13
2018-04-26T07:30:43.687Z,208.13
2018-04-26T07:31:43.665Z,196.88
2018-04-26T07:32:43.643Z,174.38
2018-04-26T07:33:43.623Z,157.50
2018-04-26T07:34:43.608Z,157.50
2018-04-26T07:35:43.586Z,146.25
2018-04-26T07:36:43.561Z,151.88
2018-04-26T07:37:44.293Z,157.50
2018-04-26T07:38:43.518Z,174.38
2018-04-26T07:39:43.497Z,185.63
2018-04-26T07:40:43.476Z,185.63
2018-04-26T07:41:43.454Z,185.63
2018-04-26T07:42:43.434Z,191.25
2018-04-26T07:43:43.412Z,185.63
2018-04-26T07:44:43.428Z,202.50
2018-04-26T07:45:43.372Z,202.50
2018-04-26T07:46:43.349Z,208.13
2018-04-26T07:47:43.329Z,196.88
2018-04-26T07:48:43.307Z,196.88
2018-04-26T07:49:43.288Z,196.88
2018-04-26T07:50:43.265Z,196.88
2018-04-26T07:51:43.246Z,202.50
2018-04-26T07:52:43.230Z,219.38
2018-04-26T07:53:43.957Z,213.75
2018-04-26T07:54:43.186Z,208.13
2018-04-26T07:55:43.161Z,208.13
2018-04-26T07:56:43.141Z,213.75
2018-04-26T07:57:43.122Z,219.38
2018-04-26T07:58:43.100Z,230.63
2018-04-26T07:59:43.080Z,208.13
2018-04-26T08:00:43.061Z,202.50
2018-04-26T08:01:43.141Z,213.75
2018-04-26T08:02:43.016Z,230.63
2018-04-26T08:03:42.995Z,247.50
2018-04-26T08:04:44.475Z,253.13
2018-04-26T08:05:42.954Z,253.13
2018-04-26T08:06:42.933Z,253.13
2018-04-26T08:07:42.911Z,241.88
2018-04-26T08:08:42.892Z,253.13
2018-04-26T08:09:42.875Z,270.00
2018-04-26T08:10:42.853Z,292.50
2018-04-26T08:11:42.840Z,292.50
2018-04-26T08:12:42.809Z,258.75
2018-04-26T08:13:42.789Z,253.13
2018-04-26T08:14:42.770Z,230.63
2018-04-26T08:15:42.747Z,208.13
2018-04-26T08:16:42.727Z,174.38
2018-04-26T08:17:42.706Z,168.75
2018-04-26T08:18:42.684Z,168.75
2018-04-26T08:19:42.676Z,135.00
2018-04-26T08:20:42.644Z,129.38
2018-04-26T08:21:42.623Z,135.00
2018-04-26T08:22:42.601Z,146.25
2018-04-26T08:23:42.582Z,157.50
2018-04-26T08:24:42.561Z,174.38
2018-04-26T08:25:42.540Z,191.25
2018-04-26T08:26:43.271Z,202.50
2018-04-26T08:27:42.497Z,196.88
2018-04-26T08:28:42.480Z,191.25
2018-04-26T08:29:42.457Z,185.63
2018-04-26T08:30:42.434Z,180.00
2018-04-26T08:31:42.419Z,191.25
2018-04-26T08:32:42.393Z,202.50
2018-04-26T08:33:42.374Z,225.00
2018-04-26T08:34:42.351Z,219.38
2018-04-26T08:35:42.331Z,202.50
2018-04-26T08:36:42.310Z,196.88
2018-04-26T08:37:42.289Z,196.88
2018-04-26T08:38:42.268Z,196.88
2018-04-26T08:39:42.246Z,202.50
2018-04-26T08:40:42.226Z,191.25
2018-04-26T08:41:42.209Z,180.00
2018-04-26T08:42:45.188Z,168.75
2018-04-26T08:43:42.164Z,163.13
2018-04-26T08:44:42.143Z,146.25
2018-04-26T08:45:42.123Z,140.63
2018-04-26T08:46:42.101Z,123.75
2018-04-26T08:47:42.080Z,112.50
2018-04-26T08:48:42.061Z,106.88
2018-04-26T08:49:42.044Z,106.88
2018-04-26T08:50:42.018Z,118.13
2018-04-26T08:51:41.997Z,123.75
2018-04-26T08:52:41.979Z,123.75
2018-04-26T08:53:41.955Z,129.38
2018-04-26T08:54:41.934Z,129.38
2018-04-26T08:55:41.915Z,129.38
2018-04-26T08:56:41.894Z,135.00
2018-04-26T08:57:41.873Z,135.00
2018-04-26T08:58:41.850Z,140.63
2018-04-26T08:59:44.920Z,146.25
2018-04-26T09:00:41.809Z,146.25
2018-04-26T09:01:41.787Z,146.25
2018-04-26T09:02:41.767Z,146.25
2018-04-26T09:03:41.748Z,151.88
2018-04-26T09:04:41.726Z,151.88
2018-04-26T09:05:41.704Z,151.88
2018-04-26T09:06:41.741Z,151.88
2018-04-26T09:07:41.660Z,157.50
2018-04-26T09:08:41.640Z,157.50
2018-04-26T09:09:41.619Z,151.88
2018-04-26T09:10:41.597Z,146.25
2018-04-26T09:11:41.576Z,140.63
2018-04-26T09:12:41.558Z,140.63
2018-04-26T09:13:41.535Z,135.00
2018-04-26T09:14:41.512Z,123.75
2018-04-26T09:15:41.567Z,123.75
2018-04-26T09:16:41.470Z,135.00
2018-04-26T09:17:41.449Z,140.63
2018-04-26T09:18:41.427Z,151.88
2018-04-26T09:19:41.428Z,151.88
2018-04-26T09:20:41.386Z,146.25
2018-04-26T09:21:41.364Z,146.25
2018-04-26T09:22:41.343Z,146.25
2018-04-26T09:23:41.323Z,140.63
2018-04-26T09:24:41.301Z,151.88
2018-04-26T09:25:41.280Z,157.50
2018-04-26T09:26:41.257Z,157.50
2018-04-26T09:27:41.238Z,151.88
2018-04-26T09:28:41.217Z,151.88
2018-04-26T09:29:41.195Z,157.50
2018-04-26T09:30:41.172Z,151.88
2018-04-26T09:31:41.152Z,151.88
2018-04-26T09:32:41.131Z,140.63
2018-04-26T09:33:41.109Z,140.63
2018-04-26T09:34:41.092Z,151.88
2018-04-26T09:35:41.067Z,174.38
2018-04-26T09:36:41.050Z,191.25
2018-04-26T09:37:41.027Z,208.13
2018-04-26T09:38:44.087Z,213.75
2018-04-26T09:39:40.981Z,219.38
2018-04-26T09:40:40.962Z,225.00
2018-04-26T09:41:40.940Z,230.63
2018-04-26T09:42:40.924Z,241.88
2018-04-26T09:43:40.898Z,270.00
2018-04-26T09:44:42.378Z,281.25
2018-04-26T09:45:40.855Z,292.50
2018-04-26T09:46:40.834Z,298.13
2018-04-26T09:47:40.812Z,292.50
2018-04-26T09:48:40.826Z,292.50
2018-04-26T09:49:40.770Z,286.88
2018-04-26T09:50:43.752Z,292.50
2018-04-26T09:51:40.730Z,292.50
2018-04-26T09:52:40.706Z,292.50
2018-04-26T09:53:40.687Z,298.13
2018-04-26T09:54:40.665Z,303.75
2018-04-26T09:55:40.644Z,309.38
2018-04-26T09:56:42.874Z,298.13
2018-04-26T09:57:40.602Z,286.88
2018-04-26T09:58:40.581Z,275.63
2018-04-26T09:59:40.559Z,286.88
2018-04-26T10:00:40.540Z,326.25
2018-04-26T10:01:40.600Z,331.88
2018-04-26T10:02:40.496Z,298.13
2018-04-26T10:03:40.475Z,264.38
2018-04-26T10:04:40.458Z,236.25
2018-04-26T10:05:40.434Z,219.38
2018-04-26T10:06:40.412Z,225.00
2018-04-26T10:07:40.391Z,225.00
2018-04-26T10:08:40.372Z,230.63
2018-04-26T10:09:40.349Z,225.00
2018-04-26T10:10:40.327Z,225.00
2018-04-26T10:11:40.307Z,236.25
2018-04-26T10:12:40.285Z,230.63
2018-04-26T10:13:41.015Z,230.63
2018-04-26T10:14:40.243Z,225.00
2018-04-26T10:15:40.221Z,202.50
2018-04-26T10:16:40.201Z,196.88
2018-04-26T10:17:40.181Z,180.00
2018-04-26T10:18:40.159Z,174.38
2018-04-26T10:19:40.139Z,180.00
2018-04-26T10:20:40.118Z,168.75
2018-04-26T10:21:40.096Z,163.13
2018-04-26T10:22:40.075Z,163.13
2018-04-26T10:23:40.054Z,157.50
2018-04-26T10:24:40.033Z,157.50
2018-04-26T10:25:40.013Z,157.50
2018-04-26T10:26:40.000Z,157.50
2018-04-26T10:27:39.970Z,151.88
2018-04-26T10:28:39.947Z,146.25
2018-04-26T10:29:39.927Z,146.25
2018-04-26T10:30:39.910Z,146.25
2018-04-26T10:31:39.884Z,146.25
2018-04-26T10:32:39.864Z,151.88
2018-04-26T10:33:39.845Z,151.88
2018-04-26T10:34:39.820Z,151.88
2018-04-26T10:35:39.800Z,151.88
2018-04-26T10:36:39.782Z,151.88
2018-04-26T10:37:39.758Z,163.13
2018-04-26T10:38:39.735Z,168.75
2018-04-26T10:39:39.714Z,168.75
2018-04-26T10:40:39.693Z,168.75
2018-04-26T10:41:39.671Z,163.13
2018-04-26T10:42:39.655Z,163.13
2018-04-26T10:43:39.629Z,163.13
2018-04-26T10:44:39.610Z,168.75
2018-04-26T10:45:39.588Z,180.00
2018-04-26T10:46:39.565Z,185.63
2018-04-26T10:47:39.544Z,208.13
2018-04-26T10:48:39.530Z,230.63
2018-04-26T10:49:39.501Z,264.38
2018-04-26T10:50:39.480Z,292.50
2018-04-26T10:51:39.459Z,298.13
2018-04-26T10:52:39.437Z,292.50
2018-04-26T10:53:39.416Z,275.63
2018-04-26T10:54:39.394Z,258.75
2018-04-26T10:55:40.128Z,225.00
2018-04-26T10:56:39.352Z,202.50
2018-04-26T10:57:39.333Z,185.63
2018-04-26T10:58:39.308Z,185.63
2018-04-26T10:59:39.290Z,191.25
2018-04-26T11:00:39.268Z,185.63
2018-04-26T11:01:39.249Z,180.00
2018-04-26T11:02:39.226Z,174.38
2018-04-26T11:03:39.204Z,174.38
2018-04-26T11:04:39.188Z,168.75
2018-04-26T11:05:39.163Z,157.50
2018-04-26T11:06:39.142Z,151.88
2018-04-26T11:07:39.119Z,157.50
2018-04-26T11:08:39.099Z,151.88
2018-04-26T11:09:39.079Z,151.88
2018-04-26T11:10:39.056Z,151.88
2018-04-26T11:11:39.051Z,151.88
2018-04-26T11:12:39.017Z,151.88
2018-04-26T11:13:39.001Z,151.88
2018-04-26T11:14:38.974Z,151.88
2018-04-26T11:15:38.993Z,157.50
2018-04-26T11:16:39.681Z,163.13
2018-04-26T11:17:38.921Z,157.50
2018-04-26T11:18:38.888Z,146.25
2018-04-26T11:19:38.866Z,146.25
2018-04-26T11:20:38.846Z,146.25
2018-04-26T11:21:38.825Z,146.25
2018-04-26T11:22:38.804Z,163.13
2018-04-26T11:23:38.782Z,180.00
2018-04-26T11:24:38.762Z,191.25
2018-04-26T11:25:38.742Z,202.50
2018-04-26T11:26:38.719Z,208.13
2018-04-26T11:27:40.201Z,208.13
2018-04-26T11:28:38.678Z,202.50
2018-04-26T11:29:38.659Z,202.50
2018-04-26T11:30:38.637Z,185.63
2018-04-26T11:31:38.616Z,180.00
2018-04-26T11:32:38.595Z,185.63
2018-04-26T11:33:38.573Z,191.25
2018-04-26T11:34:38.553Z,208.13
2018-04-26T11:35:38.533Z,219.38
2018-04-26T11:36:38.512Z,225.00
2018-04-26T11:37:38.491Z,219.38
2018-04-26T11:38:38.470Z,219.38
2018-04-26T11:39:38.450Z,225.00
2018-04-26T11:40:38.429Z,230.63
2018-04-26T11:41:38.407Z,247.50
2018-04-26T11:42:38.386Z,258.75
2018-04-26T11:43:38.366Z,270.00
2018-04-26T11:44:38.345Z,292.50
2018-04-26T11:45:38.324Z,292.50
2018-04-26T11:46:38.310Z,281.25
2018-04-26T11:47:38.289Z,281.25
2018-04-26T11:48:38.263Z,292.50
2018-04-26T11:49:40.495Z,331.88
2018-04-26T11:50:38.221Z,337.50
2018-04-26T11:51:38.202Z,331.88
2018-04-26T11:52:38.186Z,315.00
2018-04-26T11:53:38.159Z,309.38
2018-04-26T11:54:38.138Z,315.00
2018-04-26T11:55:38.117Z,315.00
2018-04-26T11:56:38.099Z,315.00
2018-04-26T11:57:38.078Z,337.50
2018-04-26T11:58:38.057Z,365.63
2018-04-26T11:59:38.038Z,416.25
2018-04-26T12:00:38.017Z,438.75
2018-04-26T12:01:37.996Z,399.38
2018-04-26T12:02:38.015Z,343.13
2018-04-26T12:03:37.957Z,298.13
2018-04-26T12:04:37.936Z,270.00
2018-04-26T12:05:37.925Z,270.00
2018-04-26T12:06:37.897Z,286.88
2018-04-26T12:07:37.881Z,298.13
2018-04-26T12:08:37.859Z,309.38
2018-04-26T12:09:37.837Z,303.75
2018-04-26T12:10:37.820Z,298.13
2018-04-26T12:11:37.797Z,292.50
2018-04-26T12:12:37.778Z,286.88
2018-04-26T12:13:37.758Z,281.25
2018-04-26T12:14:37.737Z,270.00
2018-04-26T12:15:37.726Z,270.00
2018-04-26T12:16:37.698Z,286.88
2018-04-26T12:17:37.679Z,303.75
2018-04-26T12:18:37.676Z,298.13
2018-04-26T12:19:37.639Z,309.38
2018-04-26T12:20:37.619Z,348.75
2018-04-26T12:21:37.598Z,388.13
2018-04-26T12:22:37.579Z,416.25
2018-04-26T12:23:37.557Z,405.00
2018-04-26T12:24:37.543Z,393.75
2018-04-26T12:25:37.530Z,393.75
2018-04-26T12:26:37.499Z,382.50
2018-04-26T12:27:37.479Z,365.63
2018-04-26T12:28:37.460Z,371.25
2018-04-26T12:29:37.439Z,382.50
2018-04-26T12:30:37.418Z,376.88
2018-04-26T12:31:37.400Z,360.00
2018-04-26T12:32:37.380Z,348.75
2018-04-26T12:33:37.360Z,331.88
2018-04-26T12:34:37.339Z,315.00
2018-04-26T12:35:37.320Z,292.50
2018-04-26T12:36:37.300Z,281.25
2018-04-26T12:37:37.282Z,275.63
2018-04-26T12:38:37.284Z,264.38
2018-04-26T12:39:37.241Z,253.13
2018-04-26T12:40:37.221Z,247.50
2018-04-26T12:41:37.203Z,236.25
2018-04-26T12:42:37.182Z,230.63
2018-04-26T12:43:37.164Z,219.38
2018-04-26T12:44:37.143Z,202.50
2018-04-26T12:45:37.125Z,196.88
2018-04-26T12:46:37.107Z,202.50
2018-04-26T12:47:37.835Z,213.75
2018-04-26T12:48:37.067Z,230.63
2018-04-26T12:49:37.047Z,236.25